aviador You're here:

KVNC Decoded Metar

in
Report Time2017-08-19 14:55:00
UTC Time2017-08-19 15:02:18
Flight Rules vfr VFR
Wind270° at 05 kt
W.Decomp.*RWY 31: 3.8 kt HW 3.2 kt LCW
RWY 23: 3.8 kt HW 3.2 kt RCW
W.Rank270° ranks 24
Current wind is below 270° avg. (7.4)
Visibility9999 m
Phenomena:N/A
Clouds:N/A
Expected CloudBase > 2,800 ft AGL from Temp-Dew spread
CeilingNone
Temp30°C
Dew Point23°C (66% RH)
Heat Index34.1°C
QNH1017 hPa
Raw Report
METAR KVNC 191455Z AUTO 27005KT 10SM CLR 30/23 A3002 RMK AO2=

Extra information for KVNC:More info

Social comments